Time;durP1;ratioP1;P1;durP2;ratioP2;P2;SDS_P1;SDS_P2;PMS_P1;PMS_P2;Temp;Humidity;BMP_temperature;BMP_pressure;BME280_temperature;BME280_humidity;BME280_pressure;Samples;Min_cycle;Max_cycle;Signal;HPM_P1;HPM_P2
2023/10/18 00:01:45;;;;;;;17.45;15.40;;;;;;;;;;2072749;28;20041;-72
2023/10/18 00:03:06;;;;;;;13.88;11.30;;;;;;;;;;2073177;28;20374;-71
2023/10/18 00:04:28;;;;;;;16.35;12.48;;;;;;;;;;2071427;28;20393;-71
2023/10/18 00:05:49;;;;;;;13.45;10.85;;;;;;;;;;2072338;28;20038;-72
2023/10/18 00:07:12;;;;;;;15.90;12.38;;;;;;;;;;2072063;28;20026;-72
2023/10/18 00:08:32;;;;;;;15.40;12.13;;;;;;;;;;2074910;28;20030;-72
2023/10/18 00:09:55;;;;;;;14.93;11.68;;;;;;;;;;2073028;28;20485;-72
2023/10/18 00:11:16;;;;;;;19.90;13.52;;;;;;;;;;2063941;28;20030;-72
2023/10/18 00:12:39;;;;;;;17.33;12.75;;;;;;;;;;2069519;28;20034;-72
2023/10/18 00:13:59;;;;;;;18.73;11.65;;;;;;;;;;2063849;28;20038;-73
2023/10/18 00:15:21;;;;;;;18.00;13.45;;;;;;;;;;2064158;28;20038;-72
2023/10/18 00:16:41;;;;;;;19.35;12.27;;;;;;;;;;2072073;28;20029;-73
2023/10/18 00:18:02;;;;;;;17.77;12.05;;;;;;;;;;2065754;28;20083;-73
2023/10/18 00:19:23;;;;;;;20.90;12.48;;;;;;;;;;2071417;28;20100;-73
2023/10/18 00:20:44;;;;;;;17.48;12.63;;;;;;;;;;2073716;28;20041;-72
2023/10/18 00:22:07;;;;;;;14.88;11.70;;;;;;;;;;2081166;28;20089;-71
2023/10/18 00:23:28;;;;;;;15.57;12.95;;;;;;;;;;2076378;28;20033;-71
2023/10/18 00:24:49;;;;;;;16.90;12.27;;;;;;;;;;2072246;28;20042;-71
2023/10/18 00:26:11;;;;;;;17.30;12.38;;;;;;;;;;2071389;28;20081;-72
2023/10/18 00:27:32;;;;;;;20.38;12.48;;;;;;;;;;2066277;28;20033;-72
2023/10/18 00:28:53;;;;;;;18.80;13.50;;;;;;;;;;2071115;28;20473;-72
2023/10/18 00:30:14;;;;;;;19.45;11.43;;;;;;;;;;2075029;28;20030;-72
2023/10/18 00:31:34;;;;;;;14.85;11.93;;;;;;;;;;2081450;28;20096;-73
2023/10/18 00:32:56;;;;;;;21.35;14.57;;;;;;;;;;2076905;28;20152;-71
2023/10/18 00:34:18;;;;;;;19.17;13.43;;;;;;;;;;2071096;28;20026;-72
2023/10/18 00:35:41;;;;;;;17.90;13.32;;;;;;;;;;2073112;28;20053;-71
2023/10/18 00:37:04;;;;;;;18.45;13.10;;;;;;;;;;2073653;28;20017;-72
2023/10/18 00:38:25;;;;;;;16.98;12.23;;;;;;;;;;2063626;28;20086;-71
2023/10/18 00:39:46;;;;;;;20.50;12.80;;;;;;;;;;2063128;28;20034;-72
2023/10/18 00:41:22;;;;;;;;;;;;;;;;;;2074695;28;20426;-72
2023/10/18 00:42:44;;;;;;;18.83;12.77;;;;;;;;;;2066336;28;20289;-73
2023/10/18 00:44:09;;;;;;;15.35;13.30;;;;;;;;;;2064929;28;20041;-72
2023/10/18 00:45:31;;;;;;;16.73;12.05;;;;;;;;;;2065023;28;20037;-72
2023/10/18 00:46:55;;;;;;;15.57;12.85;;;;;;;;;;2078680;28;20026;-71
2023/10/18 00:48:19;;;;;;;17.48;12.32;;;;;;;;;;2077257;28;20386;-73
2023/10/18 00:49:41;;;;;;;21.92;13.07;;;;;;;;;;2070716;28;20034;-73
2023/10/18 00:51:03;;;;;;;14.32;11.93;;;;;;;;;;2069427;28;20362;-72
2023/10/18 00:52:26;;;;;;;19.30;13.32;;;;;;;;;;2081260;28;20037;-72
2023/10/18 00:53:48;;;;;;;18.88;13.05;;;;;;;;;;2075722;28;20026;-71
2023/10/18 00:55:12;;;;;;;18.25;12.70;;;;;;;;;;2073865;28;20501;-72
2023/10/18 00:56:34;;;;;;;18.48;14.05;;;;;;;;;;2073949;28;20034;-71
2023/10/18 00:57:55;;;;;;;16.10;12.07;;;;;;;;;;2073362;28;20026;-72
2023/10/18 00:59:21;;;;;;;16.85;12.52;;;;;;;;;;2066389;28;20481;-72
2023/10/18 01:00:43;;;;;;;15.82;11.93;;;;;;;;;;2065992;28;20038;-72
2023/10/18 01:02:11;;;;;;;17.35;13.70;;;;;;;;;;2072920;28;20034;-73
2023/10/18 01:03:49;;;;;;;16.23;12.38;;;;;;;;;;2070135;28;20041;-71
2023/10/18 01:05:14;;;;;;;18.67;13.05;;;;;;;;;;2072758;28;20026;-71
2023/10/18 01:06:36;;;;;;;16.45;13.07;;;;;;;;;;2072059;28;20030;-71
2023/10/18 01:07:58;;;;;;;16.67;12.88;;;;;;;;;;2073766;28;20022;-72
2023/10/18 01:09:20;;;;;;;;;;;;;;;;;;2065913;28;20031;-71
2023/10/18 01:10:42;;;;;;;16.90;11.52;;;;;;;;;;2073809;28;19985;-72
2023/10/18 01:12:04;;;;;;;18.25;13.55;;;;;;;;;;2075208;28;20389;-71
2023/10/18 01:13:25;;;;;;;17.20;12.23;;;;;;;;;;2079189;28;20123;-71
2023/10/18 01:14:46;;;;;;;18.85;12.80;;;;;;;;;;2075643;28;20045;-71
2023/10/18 01:16:21;;;;;;;21.40;13.10;;;;;;;;;;2072604;28;20022;-77
2023/10/18 01:17:47;;;;;;;17.73;12.57;;;;;;;;;;2070757;28;20030;-77
2023/10/18 01:19:14;;;;;;;16.70;12.82;;;;;;;;;;2065239;28;20029;-77
2023/10/18 01:20:39;;;;;;;16.17;12.75;;;;;;;;;;2072002;28;20041;-78
2023/10/18 01:22:00;;;;;;;17.45;11.75;;;;;;;;;;2073634;28;20029;-78
2023/10/18 01:23:21;;;;;;;16.85;12.35;;;;;;;;;;2071097;28;20030;-78
2023/10/18 01:24:42;;;;;;;19.73;12.45;;;;;;;;;;2082578;28;20525;-77
2023/10/18 01:26:04;;;;;;;16.30;11.82;;;;;;;;;;2077716;28;20033;-77
2023/10/18 01:27:26;;;;;;;15.98;11.75;;;;;;;;;;2065297;28;20077;-78
2023/10/18 01:28:47;;;;;;;20.75;13.02;;;;;;;;;;2078032;28;20509;-77
2023/10/18 01:30:08;;;;;;;17.25;11.05;;;;;;;;;;2076495;28;20026;-77
2023/10/18 01:31:31;;;;;;;20.17;12.68;;;;;;;;;;2073012;28;20417;-77
2023/10/18 01:32:53;;;;;;;16.55;12.93;;;;;;;;;;2073805;28;20420;-77
2023/10/18 01:34:15;;;;;;;17.40;13.55;;;;;;;;;;2072223;28;20026;-77
2023/10/18 01:35:39;;;;;;;14.75;11.90;;;;;;;;;;2070220;28;20030;-78
2023/10/18 01:37:00;;;;;;;21.23;14.70;;;;;;;;;;2066167;28;20030;-77
2023/10/18 01:38:25;;;;;;;16.17;12.68;;;;;;;;;;2070460;28;20038;-78
2023/10/18 01:39:45;;;;;;;17.02;12.43;;;;;;;;;;2077105;28;20041;-78
2023/10/18 01:41:12;;;;;;;20.50;13.25;;;;;;;;;;2065519;28;20039;-77
2023/10/18 01:42:36;;;;;;;18.50;12.88;;;;;;;;;;2073267;28;20030;-78
2023/10/18 01:44:10;;;;;;;16.13;12.45;;;;;;;;;;2073979;28;20033;-78
2023/10/18 01:45:37;;;;;;;17.55;13.98;;;;;;;;;;2074090;28;20045;-77
2023/10/18 01:47:08;;;;;;;17.08;12.38;;;;;;;;;;2065539;28;20022;-77
2023/10/18 01:48:30;;;;;;;15.95;12.93;;;;;;;;;;2069416;28;20052;-78
2023/10/18 01:49:53;;;;;;;17.52;12.63;;;;;;;;;;2074226;28;20030;-77
2023/10/18 01:51:14;;;;;;;18.17;13.00;;;;;;;;;;2066555;28;20031;-77
2023/10/18 01:52:37;;;;;;;22.58;12.48;;;;;;;;;;2074509;28;20042;-78
2023/10/18 01:54:12;;;;;;;19.83;12.32;;;;;;;;;;2072444;28;20032;-77
2023/10/18 01:55:35;;;;;;;19.08;12.82;;;;;;;;;;2074081;28;20049;-77
2023/10/18 01:56:57;;;;;;;17.13;13.23;;;;;;;;;;2073978;28;20110;-78
2023/10/18 01:58:23;;;;;;;16.92;13.23;;;;;;;;;;2070253;28;20038;-78
2023/10/18 01:59:46;;;;;;;16.10;12.98;;;;;;;;;;2062942;28;20036;-78
2023/10/18 02:01:10;;;;;;;18.52;13.10;;;;;;;;;;2073963;28;20041;-77
2023/10/18 02:02:34;;;;;;;18.95;13.02;;;;;;;;;;2073312;28;20449;-77
2023/10/18 02:03:58;;;;;;;17.45;12.88;;;;;;;;;;2073617;28;20041;-77
2023/10/18 02:05:19;;;;;;;17.65;12.85;;;;;;;;;;2073768;28;20060;-78
2023/10/18 02:06:40;;;;;;;20.95;13.88;;;;;;;;;;2081280;28;20037;-78
2023/10/18 02:08:01;;;;;;;19.88;12.77;;;;;;;;;;2077376;28;20026;-78
2023/10/18 02:09:23;;;;;;;19.67;13.55;;;;;;;;;;2073081;28;20030;-78
2023/10/18 02:10:45;;;;;;;17.10;13.10;;;;;;;;;;2073629;28;20022;-77
2023/10/18 02:12:07;;;;;;;19.45;12.70;;;;;;;;;;2071499;28;20025;-78
2023/10/18 02:13:28;;;;;;;16.08;12.93;;;;;;;;;;2072189;28;20030;-77
2023/10/18 02:14:49;;;;;;;16.75;13.60;;;;;;;;;;2073495;28;20037;-78
2023/10/18 02:16:19;;;;;;;18.02;13.02;;;;;;;;;;2065152;28;20042;-77
2023/10/18 02:17:40;;;;;;;18.17;13.13;;;;;;;;;;2072126;28;20485;-78
2023/10/18 02:19:01;;;;;;;21.70;13.48;;;;;;;;;;2066381;28;20030;-77
2023/10/18 02:20:26;;;;;;;16.48;12.98;;;;;;;;;;2069669;28;20072;-77
2023/10/18 02:21:47;;;;;;;18.65;12.88;;;;;;;;;;2073403;28;20042;-77
2023/10/18 02:23:11;;;;;;;17.08;14.10;;;;;;;;;;2081181;28;20026;-78
2023/10/18 02:24:32;;;;;;;18.15;12.90;;;;;;;;;;2075090;28;20112;-77
2023/10/18 02:25:53;;;;;;;19.52;13.38;;;;;;;;;;2065361;28;20034;-72
2023/10/18 02:27:16;;;;;;;17.05;13.55;;;;;;;;;;2072401;28;20022;-80
2023/10/18 02:28:37;;;;;;;20.42;14.32;;;;;;;;;;2071400;28;20034;-81
2023/10/18 02:29:58;;;;;;;20.67;12.48;;;;;;;;;;2072678;28;20026;-80
2023/10/18 02:31:22;;;;;;;17.63;13.73;;;;;;;;;;2073715;28;20030;-80
2023/10/18 02:32:43;;;;;;;22.13;13.63;;;;;;;;;;2065008;28;20461;-79
2023/10/18 02:34:05;;;;;;;17.92;14.02;;;;;;;;;;2069908;28;20022;-79
2023/10/18 02:35:27;;;;;;;16.15;11.98;;;;;;;;;;2081038;28;20454;-80
2023/10/18 02:36:48;;;;;;;19.70;12.88;;;;;;;;;;2073145;28;20025;-80
2023/10/18 02:38:09;;;;;;;18.75;12.45;;;;;;;;;;2081432;28;20528;-79
2023/10/18 02:39:33;;;;;;;17.50;13.35;;;;;;;;;;2077218;28;20453;-80
2023/10/18 02:40:56;;;;;;;17.40;11.88;;;;;;;;;;2072775;28;20401;-80
2023/10/18 02:42:18;;;;;;;17.98;12.70;;;;;;;;;;2072487;28;20026;-80
2023/10/18 02:43:39;;;;;;;17.27;12.32;;;;;;;;;;2081960;28;20080;-80
2023/10/18 02:45:12;;;;;;;18.58;12.40;;;;;;;;;;2076441;28;20430;-80
2023/10/18 02:46:33;;;;;;;17.70;12.23;;;;;;;;;;2060869;28;20363;-79
2023/10/18 02:47:54;;;;;;;20.15;13.07;;;;;;;;;;2070180;28;20764;-80
2023/10/18 02:49:17;;;;;;;17.60;13.30;;;;;;;;;;2073137;28;20045;-81
2023/10/18 02:50:38;;;;;;;16.65;12.68;;;;;;;;;;2073150;28;20442;-80
2023/10/18 02:51:59;;;;;;;17.98;13.27;;;;;;;;;;2066737;28;20423;-80
2023/10/18 02:53:20;;;;;;;14.70;11.70;;;;;;;;;;2070144;28;20026;-80
2023/10/18 02:54:42;;;;;;;18.08;12.75;;;;;;;;;;2073312;28;20033;-80
2023/10/18 02:56:04;;;;;;;16.85;11.27;;;;;;;;;;2066020;28;20030;-79
2023/10/18 02:57:25;;;;;;;18.27;13.48;;;;;;;;;;2069904;28;20038;-78
2023/10/18 02:58:49;;;;;;;19.58;13.07;;;;;;;;;;2073078;28;20497;-80
2023/10/18 03:00:11;;;;;;;17.30;12.23;;;;;;;;;;2073414;28;20037;-80
2023/10/18 03:01:33;;;;;;;19.48;12.30;;;;;;;;;;2073018;28;20163;-79
2023/10/18 03:02:55;;;;;;;19.63;13.75;;;;;;;;;;2068379;28;20026;-80
2023/10/18 03:04:16;;;;;;;17.33;12.55;;;;;;;;;;2061487;28;20034;-79
2023/10/18 03:05:40;;;;;;;20.00;12.82;;;;;;;;;;2072149;28;20078;-80
2023/10/18 03:07:02;;;;;;;18.83;14.70;;;;;;;;;;2074073;28;20029;-80
2023/10/18 03:08:23;;;;;;;19.25;13.60;;;;;;;;;;2072832;28;20022;-80
2023/10/18 03:09:49;;;;;;;20.27;12.38;;;;;;;;;;2073174;28;20033;-79
2023/10/18 03:11:12;;;;;;;15.05;10.95;;;;;;;;;;2073621;28;20034;-79
2023/10/18 03:12:36;;;;;;;17.85;12.60;;;;;;;;;;2071532;28;20493;-80
2023/10/18 03:13:57;;;;;;;17.27;12.18;;;;;;;;;;2072238;28;20030;-79
2023/10/18 03:15:18;;;;;;;18.40;12.05;;;;;;;;;;2072222;28;20037;-79
2023/10/18 03:16:39;;;;;;;17.30;13.23;;;;;;;;;;2073953;28;20026;-80
2023/10/18 03:18:02;;;;;;;15.98;12.70;;;;;;;;;;2072290;28;20077;-80
2023/10/18 03:19:24;;;;;;;18.85;12.13;;;;;;;;;;2073223;28;20038;-80
2023/10/18 03:20:45;;;;;;;19.08;13.35;;;;;;;;;;2071398;28;20038;-80
2023/10/18 03:22:06;;;;;;;15.18;11.93;;;;;;;;;;2073552;28;20037;-80
2023/10/18 03:23:31;;;;;;;16.80;11.73;;;;;;;;;;2061384;28;20580;-80
2023/10/18 03:24:55;;;;;;;18.60;15.27;;;;;;;;;;2075878;28;20040;-79
2023/10/18 03:26:21;;;;;;;16.60;13.35;;;;;;;;;;2073032;28;20033;-80
2023/10/18 03:27:49;;;;;;;18.33;12.40;;;;;;;;;;2079418;28;20033;-80
2023/10/18 03:29:16;;;;;;;17.77;13.35;;;;;;;;;;2074299;28;20033;-79
2023/10/18 03:30:44;;;;;;;15.63;11.93;;;;;;;;;;2081905;28;20040;-79
2023/10/18 03:32:08;;;;;;;16.20;11.93;;;;;;;;;;2072533;28;20022;-79
2023/10/18 03:33:30;;;;;;;20.33;13.23;;;;;;;;;;2077362;28;20034;-79
2023/10/18 03:34:53;;;;;;;18.60;14.32;;;;;;;;;;2075636;28;20042;-77
2023/10/18 03:36:25;;;;;;;19.80;13.35;;;;;;;;;;2071227;28;20033;-72
2023/10/18 03:37:46;;;;;;;17.20;13.00;;;;;;;;;;2068281;28;20050;-77
2023/10/18 03:39:15;;;;;;;14.73;12.00;;;;;;;;;;2077332;28;20030;-78
2023/10/18 03:40:36;;;;;;;16.33;12.23;;;;;;;;;;2077536;28;20079;-77
2023/10/18 03:42:02;;;;;;;17.60;12.82;;;;;;;;;;2064745;28;20612;-77
2023/10/18 03:43:26;;;;;;;19.85;12.50;;;;;;;;;;2078861;28;20033;-77
2023/10/18 03:44:49;;;;;;;17.02;12.55;;;;;;;;;;2066404;28;20041;-77
2023/10/18 03:46:29;;;;;;;17.02;12.90;;;;;;;;;;2073034;28;20485;-77
2023/10/18 03:47:59;;;;;;;14.70;11.68;;;;;;;;;;2067624;28;20030;-77
2023/10/18 03:49:37;;;;;;;16.92;11.93;;;;;;;;;;2070456;28;20575;-77
2023/10/18 03:51:00;;;;;;;18.77;14.30;;;;;;;;;;2072730;28;20041;-77
2023/10/18 03:52:21;;;;;;;16.73;12.52;;;;;;;;;;2072154;28;20591;-77
2023/10/18 03:53:42;;;;;;;13.63;11.77;;;;;;;;;;2072979;28;20401;-77
2023/10/18 03:55:13;;;;;;;17.17;12.68;;;;;;;;;;2074699;28;20113;-77
2023/10/18 03:56:37;;;;;;;20.17;14.00;;;;;;;;;;2064546;28;20049;-77
2023/10/18 03:57:58;;;;;;;19.17;12.88;;;;;;;;;;2073278;28;20386;-77
2023/10/18 03:59:23;;;;;;;19.65;12.98;;;;;;;;;;2066699;28;20340;-77
2023/10/18 04:00:47;;;;;;;14.75;12.02;;;;;;;;;;2066137;28;20034;-77
2023/10/18 04:02:15;;;;;;;17.90;12.43;;;;;;;;;;2079807;28;20139;-79
2023/10/18 04:03:36;;;;;;;14.48;11.60;;;;;;;;;;2075441;28;20034;-77
2023/10/18 04:05:00;;;;;;;15.35;12.73;;;;;;;;;;2074312;28;20057;-77
2023/10/18 04:06:23;;;;;;;14.93;12.43;;;;;;;;;;2074337;28;20033;-77
2023/10/18 04:07:44;;;;;;;15.73;12.07;;;;;;;;;;2082309;28;20017;-77
2023/10/18 04:09:13;;;;;;;15.20;12.15;;;;;;;;;;2069216;28;20027;-78
2023/10/18 04:10:37;;;;;;;20.40;12.07;;;;;;;;;;2073890;28;20077;-77
2023/10/18 04:11:59;;;;;;;15.55;12.35;;;;;;;;;;2074352;28;20426;-78
2023/10/18 04:13:24;;;;;;;16.08;13.10;;;;;;;;;;2073907;28;20045;-77
2023/10/18 04:14:56;;;;;;;18.23;13.10;;;;;;;;;;2074715;28;20022;-77
2023/10/18 04:16:18;;;;;;;16.15;12.52;;;;;;;;;;2074231;28;20034;-77
2023/10/18 04:17:39;;;;;;;16.58;12.52;;;;;;;;;;2081537;28;20044;-77
2023/10/18 04:19:00;;;;;;;14.60;11.93;;;;;;;;;;2077568;28;20042;-77
2023/10/18 04:21:42;;;;;;;17.52;12.43;;;;;;;;;;2076758;28;20088;-76
2023/10/18 04:23:14;;;;;;;16.60;12.70;;;;;;;;;;2075069;28;20135;-77
2023/10/18 04:24:35;;;;;;;17.38;13.57;;;;;;;;;;2066107;28;20030;-77
2023/10/18 04:26:00;;;;;;;16.95;12.15;;;;;;;;;;2073991;28;20404;-77
2023/10/18 04:27:22;;;;;;;19.27;12.23;;;;;;;;;;2073828;28;20026;-77
2023/10/18 04:28:43;;;;;;;18.85;14.82;;;;;;;;;;2075053;28;20026;-77
2023/10/18 04:30:06;;;;;;;19.52;11.88;;;;;;;;;;2074925;28;20032;-78
2023/10/18 04:31:27;;;;;;;24.95;12.82;;;;;;;;;;2082728;28;20465;-77
2023/10/18 04:32:53;;;;;;;19.67;12.60;;;;;;;;;;2074133;28;20061;-77
2023/10/18 04:34:18;;;;;;;16.85;12.57;;;;;;;;;;2073426;28;20038;-77
2023/10/18 04:35:45;;;;;;;18.92;13.60;;;;;;;;;;2073421;28;20022;-77
2023/10/18 04:37:09;;;;;;;19.00;13.30;;;;;;;;;;2073446;28;20100;-77
2023/10/18 04:38:30;;;;;;;16.45;12.82;;;;;;;;;;2073358;28;20026;-77
2023/10/18 04:39:52;;;;;;;17.42;11.93;;;;;;;;;;2075323;28;20473;-77
2023/10/18 04:41:23;;;;;;;18.67;12.48;;;;;;;;;;2074189;28;20440;-78
2023/10/18 04:42:46;;;;;;;20.50;13.48;;;;;;;;;;2074210;28;20518;-77
2023/10/18 04:44:10;;;;;;;18.85;12.27;;;;;;;;;;2066356;28;20022;-78
2023/10/18 04:45:31;;;;;;;21.45;12.73;;;;;;;;;;2066313;28;20041;-78
2023/10/18 04:46:52;;;;;;;18.73;13.00;;;;;;;;;;2078875;28;20037;-71
2023/10/18 04:48:16;;;;;;;17.08;12.80;;;;;;;;;;2068722;28;20133;-71
2023/10/18 04:49:38;;;;;;;21.27;14.98;;;;;;;;;;2071066;28;20044;-73
2023/10/18 04:50:58;;;;;;;16.40;14.23;;;;;;;;;;2074397;28;20045;-71
2023/10/18 04:52:28;;;;;;;16.70;11.77;;;;;;;;;;2070809;28;20027;-71
2023/10/18 04:53:49;;;;;;;17.50;12.18;;;;;;;;;;2072347;28;20034;-71
2023/10/18 04:55:16;;;;;;;19.13;11.88;;;;;;;;;;2073725;28;20030;-71
2023/10/18 04:56:38;;;;;;;17.35;11.40;;;;;;;;;;2066208;28;20434;-72
2023/10/18 04:57:58;;;;;;;16.23;11.75;;;;;;;;;;2079056;28;20531;-71
2023/10/18 04:59:27;;;;;;;17.48;12.00;;;;;;;;;;2068723;28;20038;-71
2023/10/18 05:01:07;;;;;;;20.63;12.38;;;;;;;;;;2065773;28;20034;-71
2023/10/18 05:02:29;;;;;;;15.90;12.18;;;;;;;;;;2080220;28;20026;-71
2023/10/18 05:03:50;;;;;;;20.27;12.00;;;;;;;;;;2083156;28;20408;-74
2023/10/18 05:05:11;;;;;;;15.27;11.50;;;;;;;;;;2068122;28;20483;-71
2023/10/18 05:06:35;;;;;;;16.58;11.68;;;;;;;;;;2069113;28;20030;-71
2023/10/18 05:07:56;;;;;;;19.10;11.60;;;;;;;;;;2073899;28;20033;-71
2023/10/18 05:09:18;;;;;;;18.13;12.80;;;;;;;;;;2080961;28;20018;-71
2023/10/18 05:10:38;;;;;;;18.60;12.60;;;;;;;;;;2077490;28;20397;-72
2023/10/18 05:12:07;;;;;;;15.82;11.55;;;;;;;;;;2071810;28;20037;-71
2023/10/18 05:13:33;;;;;;;18.25;12.65;;;;;;;;;;2065261;28;20031;-72
2023/10/18 05:16:18;;;;;;;16.95;10.68;;;;;;;;;;2074573;28;20096;-73
2023/10/18 05:17:42;;;;;;;17.42;12.20;;;;;;;;;;2069742;28;20580;-71
2023/10/18 05:19:06;;;;;;;16.33;11.95;;;;;;;;;;2081735;28;20049;-72
2023/10/18 05:20:41;;;;;;;16.70;12.63;;;;;;;;;;2067619;28;20347;-72
2023/10/18 05:22:03;;;;;;;18.83;13.27;;;;;;;;;;2071830;28;20092;-72
2023/10/18 05:23:32;;;;;;;21.55;13.73;;;;;;;;;;2071010;28;20034;-73
2023/10/18 05:25:21;;;;;;;19.58;12.38;;;;;;;;;;2073901;28;20034;-70
2023/10/18 05:26:44;;;;;;;20.30;13.30;;;;;;;;;;2072327;28;20033;-72
2023/10/18 05:28:09;;;;;;;16.90;11.95;;;;;;;;;;2064214;28;20034;-72
2023/10/18 05:29:42;;;;;;;16.73;11.50;;;;;;;;;;2077415;28;20034;-71
2023/10/18 05:31:44;;;;;;;17.23;13.13;;;;;;;;;;2082188;28;20030;-72
2023/10/18 05:32:54;;;;;;;18.33;13.27;;;;;;;;;;2073124;28;20026;-72
2023/10/18 05:35:36;;;;;;;17.35;12.77;;;;;;;;;;2070433;28;20076;-72
2023/10/18 05:36:58;;;;;;;16.40;12.25;;;;;;;;;;2073064;28;20041;-73
2023/10/18 05:38:19;;;;;;;14.43;11.23;;;;;;;;;;2073205;28;20658;-71
2023/10/18 05:39:49;;;;;;;17.02;11.63;;;;;;;;;;2074777;28;20070;-71
2023/10/18 05:42:51;;;;;;;17.70;11.50;;;;;;;;;;2069877;28;20560;-71
2023/10/18 05:44:15;;;;;;;19.38;13.65;;;;;;;;;;2068254;28;20038;-71
2023/10/18 05:45:40;;;;;;;18.13;13.13;;;;;;;;;;2073420;28;20056;-71
2023/10/18 05:47:06;;;;;;;16.55;11.50;;;;;;;;;;2077904;28;20037;-71
2023/10/18 05:48:31;;;;;;;16.40;11.73;;;;;;;;;;2078846;28;20038;-73
2023/10/18 05:49:53;;;;;;;18.25;11.52;;;;;;;;;;2076376;28;20398;-72
2023/10/18 05:51:26;;;;;;;18.73;13.23;;;;;;;;;;2073794;28;20026;-71
2023/10/18 05:52:49;;;;;;;14.43;11.32;;;;;;;;;;2082395;28;20029;-71
2023/10/18 05:54:11;;;;;;;17.00;11.95;;;;;;;;;;2073389;28;20405;-72
2023/10/18 05:55:32;;;;;;;16.60;11.85;;;;;;;;;;2065797;28;20030;-71
2023/10/18 05:56:53;;;;;;;22.48;12.85;;;;;;;;;;2069457;28;20030;-71
2023/10/18 05:58:18;;;;;;;16.45;11.57;;;;;;;;;;2074055;28;20572;-71
2023/10/18 05:59:41;;;;;;;17.00;12.18;;;;;;;;;;2072137;28;20060;-72
2023/10/18 06:01:02;;;;;;;18.63;12.05;;;;;;;;;;2073562;28;20041;-72
2023/10/18 06:02:24;;;;;;;17.17;12.20;;;;;;;;;;2071668;28;20033;-71
2023/10/18 06:03:44;;;;;;;16.70;12.85;;;;;;;;;;2072346;28;20034;-71
2023/10/18 06:05:09;;;;;;;17.48;12.48;;;;;;;;;;2073198;28;20034;-71
2023/10/18 06:06:30;;;;;;;18.08;12.02;;;;;;;;;;2072767;28;20528;-71
2023/10/18 06:07:51;;;;;;;16.50;12.88;;;;;;;;;;2073667;28;20060;-74
2023/10/18 06:09:25;;;;;;;17.73;12.88;;;;;;;;;;2073063;28;20041;-71
2023/10/18 06:10:49;;;;;;;16.55;12.43;;;;;;;;;;2072187;28;20429;-73
2023/10/18 06:12:10;;;;;;;16.98;13.48;;;;;;;;;;2081028;28;20030;-72
2023/10/18 06:13:31;;;;;;;16.85;11.38;;;;;;;;;;2076445;28;20030;-72
2023/10/18 06:14:52;;;;;;;16.15;12.05;;;;;;;;;;2072168;28;20385;-73
2023/10/18 06:16:19;;;;;;;17.13;13.45;;;;;;;;;;2072567;28;20485;-72
2023/10/18 06:17:46;;;;;;;16.08;11.80;;;;;;;;;;2072674;28;20029;-72
2023/10/18 06:19:07;;;;;;;15.02;12.07;;;;;;;;;;2057934;28;20031;-72
2023/10/18 06:20:28;;;;;;;17.75;12.32;;;;;;;;;;2064323;28;20520;-73
2023/10/18 06:21:57;;;;;;;15.85;12.70;;;;;;;;;;2070736;28;20378;-73
2023/10/18 06:23:40;;;;;;;15.77;11.55;;;;;;;;;;2066517;28;20034;-72
2023/10/18 06:25:03;;;;;;;19.23;12.45;;;;;;;;;;2072759;28;20418;-71
2023/10/18 06:26:28;;;;;;;15.57;11.52;;;;;;;;;;2071293;28;20042;-73
2023/10/18 06:27:50;;;;;;;15.73;12.15;;;;;;;;;;2076988;28;20018;-72
2023/10/18 06:29:22;;;;;;;16.60;11.63;;;;;;;;;;2072638;28;20021;-72
2023/10/18 06:30:43;;;;;;;14.88;11.50;;;;;;;;;;2081754;28;20034;-72
2023/10/18 06:32:04;;;;;;;18.02;11.75;;;;;;;;;;2064255;28;20025;-72
2023/10/18 06:33:27;;;;;;;17.23;11.60;;;;;;;;;;2069965;28;20025;-71
2023/10/18 06:34:55;;;;;;;15.15;11.40;;;;;;;;;;2074378;28;20037;-72
2023/10/18 06:36:18;;;;;;;16.17;11.93;;;;;;;;;;2071912;28;20022;-73
2023/10/18 06:37:42;;;;;;;15.93;11.40;;;;;;;;;;2071453;28;20049;-71
2023/10/18 06:39:04;;;;;;;16.95;12.07;;;;;;;;;;2076853;28;20167;-71
2023/10/18 06:40:43;;;;;;;16.13;11.73;;;;;;;;;;2065322;28;20030;-73
2023/10/18 06:42:09;;;;;;;17.90;10.70;;;;;;;;;;2079989;28;20021;-73
2023/10/18 06:43:30;;;;;;;15.55;11.07;;;;;;;;;;2071087;28;20034;-71
2023/10/18 06:44:52;;;;;;;12.93;11.07;;;;;;;;;;2072665;28;20034;-72
2023/10/18 06:46:13;;;;;;;;;;;;;;;;;;2071991;28;20121;-71
2023/10/18 06:47:44;;;;;;;17.42;11.27;;;;;;;;;;2072097;28;19956;-72
2023/10/18 06:49:10;;;;;;;17.38;11.10;;;;;;;;;;2069606;28;20030;-72
2023/10/18 06:50:32;;;;;;;15.82;11.63;;;;;;;;;;2071787;28;20041;-72
2023/10/18 06:51:53;;;;;;;;;;;;;;;;;;2087242;28;20503;-72
2023/10/18 06:53:15;;;;;;;15.40;11.23;;;;;;;;;;2083775;28;19913;-72
2023/10/18 06:54:39;;;;;;;16.10;12.23;;;;;;;;;;2072390;28;20041;-73
2023/10/18 06:56:05;;;;;;;17.63;11.95;;;;;;;;;;2085161;28;20036;-72
2023/10/18 06:57:35;;;;;;;19.25;11.88;;;;;;;;;;2081591;28;20030;-74
2023/10/18 06:59:04;;;;;;;15.32;11.05;;;;;;;;;;2075605;28;20038;-73
2023/10/18 07:00:30;;;;;;;12.95;11.38;;;;;;;;;;2076955;28;20484;-73
2023/10/18 07:01:54;;;;;;;17.40;10.95;;;;;;;;;;2090409;28;20032;-72
2023/10/18 07:03:18;;;;;;;14.30;11.40;;;;;;;;;;2085093;28;20030;-71
2023/10/18 07:04:46;;;;;;;15.35;11.23;;;;;;;;;;2080115;28;20392;-71
2023/10/18 07:06:16;;;;;;;15.00;12.15;;;;;;;;;;2073242;28;20037;-72
2023/10/18 07:07:39;;;;;;;17.23;11.98;;;;;;;;;;2077990;28;20040;-72
2023/10/18 07:09:09;;;;;;;12.68;10.30;;;;;;;;;;2084981;28;20046;-74
2023/10/18 07:10:53;;;;;;;14.70;10.93;;;;;;;;;;2071140;28;20045;-72
2023/10/18 07:12:17;;;;;;;14.30;10.93;;;;;;;;;;2080953;28;20094;-73
2023/10/18 07:13:43;;;;;;;14.45;11.27;;;;;;;;;;2077709;28;20029;-73
2023/10/18 07:15:09;;;;;;;12.93;11.02;;;;;;;;;;2086803;28;20349;-72
2023/10/18 07:17:55;;;;;;;14.73;12.30;;;;;;;;;;2083599;28;20056;-72
2023/10/18 07:20:49;;;;;;;17.65;11.85;;;;;;;;;;2073304;28;20420;-75
2023/10/18 07:22:17;;;;;;;16.13;11.13;;;;;;;;;;2080815;28;20033;-74
2023/10/18 07:23:39;;;;;;;15.75;11.32;;;;;;;;;;2085803;28;20033;-72
2023/10/18 07:25:01;;;;;;;;;;;;;;;;;;2087052;28;20033;-72
2023/10/18 07:26:22;;;;;;;12.98;11.23;;;;;;;;;;2088217;28;19916;-73
2023/10/18 07:27:43;;;;;;;15.57;11.38;;;;;;;;;;2083012;28;20026;-73
2023/10/18 07:29:07;;;;;;;14.02;10.85;;;;;;;;;;2095199;28;20383;-73
2023/10/18 07:30:37;;;;;;;17.30;10.52;;;;;;;;;;2085006;28;20025;-73
2023/10/18 07:31:59;;;;;;;14.25;11.30;;;;;;;;;;2074868;28;20018;-68
2023/10/18 07:33:23;;;;;;;;;;;;;;;;;;2079530;28;20017;-72
2023/10/18 07:34:44;;;;;;;11.70;10.15;;;;;;;;;;2087923;28;20383;-71
2023/10/18 07:36:05;;;;;;;15.02;12.13;;;;;;;;;;2083472;28;20033;-73
2023/10/18 07:37:31;;;;;;;18.95;11.75;;;;;;;;;;2093811;28;20052;-72
2023/10/18 07:38:55;;;;;;;15.80;10.65;;;;;;;;;;2096344;28;20048;-73
2023/10/18 07:40:21;;;;;;;15.02;11.20;;;;;;;;;;2084721;28;20025;-72
2023/10/18 07:41:42;;;;;;;17.27;12.23;;;;;;;;;;2080077;28;20025;-75
2023/10/18 07:43:12;;;;;;;15.25;12.40;;;;;;;;;;2081689;28;20044;-75
2023/10/18 07:44:33;;;;;;;14.00;9.75;;;;;;;;;;2080071;28;20536;-73
2023/10/18 07:45:54;;;;;;;15.75;12.18;;;;;;;;;;2085773;28;20044;-73
2023/10/18 07:47:19;;;;;;;18.88;12.02;;;;;;;;;;2077607;28;20084;-74
2023/10/18 07:48:46;;;;;;;14.60;11.68;;;;;;;;;;2079221;28;20084;-74
2023/10/18 07:50:34;;;;;;;17.42;12.85;;;;;;;;;;2079073;28;20056;-73
2023/10/18 07:51:48;;;;;;;12.88;10.73;;;;;;;;;;2079219;28;20121;-73
2023/10/18 07:53:12;;;;;;;16.92;11.30;;;;;;;;;;2085823;28;20033;-73
2023/10/18 07:54:35;;;;;;;18.35;11.68;;;;;;;;;;2079457;28;20388;-73
2023/10/18 07:56:00;;;;;;;15.32;11.38;;;;;;;;;;2080565;28;20033;-72
2023/10/18 07:57:33;;;;;;;17.33;11.60;;;;;;;;;;2083629;28;20080;-75
2023/10/18 07:58:54;;;;;;;16.88;10.02;;;;;;;;;;2075542;28;20034;-74
2023/10/18 08:00:21;;;;;;;13.80;11.63;;;;;;;;;;2072026;28;20030;-74
2023/10/18 08:01:51;;;;;;;16.70;12.32;;;;;;;;;;2071054;28;20026;-72
2023/10/18 08:03:12;;;;;;;17.70;11.80;;;;;;;;;;2071849;28;20033;-73
2023/10/18 08:04:37;;;;;;;17.57;13.03;;;;;;;;;;2069704;28;20057;-73
2023/10/18 08:05:59;;;;;;;14.82;11.05;;;;;;;;;;2062449;28;20478;-74
2023/10/18 08:07:20;;;;;;;17.75;11.15;;;;;;;;;;2072946;28;20457;-73
2023/10/18 08:08:42;;;;;;;15.85;11.00;;;;;;;;;;2075989;28;20033;-75
2023/10/18 08:10:08;;;;;;;14.77;10.50;;;;;;;;;;2073116;28;20038;-74
2023/10/18 08:11:32;;;;;;;16.38;11.57;;;;;;;;;;2079639;28;20508;-72
2023/10/18 08:13:10;;;;;;;13.18;10.68;;;;;;;;;;2065523;28;20489;-72
2023/10/18 08:14:34;;;;;;;17.52;11.43;;;;;;;;;;2071500;28;20383;-74
2023/10/18 08:15:56;;;;;;;16.73;10.82;;;;;;;;;;2071950;28;20034;-73
2023/10/18 08:17:29;;;;;;;17.40;10.93;;;;;;;;;;2072623;28;20033;-76
2023/10/18 08:18:53;;;;;;;14.57;10.30;;;;;;;;;;2071735;28;20037;-77
2023/10/18 08:21:57;;;;;;;15.32;10.38;;;;;;;;;;2072724;28;20041;-78